sensor_id;sensor_type;location;lat;lon;timestamp;P1;durP1;ratioP1;P2;durP2;ratioP2
15256;SDS011;7731;50.720;6.912;2022-10-30T00:01:38;11.63;;;5.68;;
15256;SDS011;7731;50.720;6.912;2022-10-30T00:04:15;10.73;;;5.80;;
15256;SDS011;7731;50.720;6.912;2022-10-30T00:06:45;10.27;;;5.80;;
15256;SDS011;7731;50.720;6.912;2022-10-30T00:09:19;12.77;;;5.63;;
15256;SDS011;7731;50.720;6.912;2022-10-30T00:11:49;12.77;;;5.93;;
15256;SDS011;7731;50.720;6.912;2022-10-30T00:14:19;11.48;;;6.25;;
15256;SDS011;7731;50.720;6.912;2022-10-30T00:16:49;11.50;;;6.50;;
15256;SDS011;7731;50.720;6.912;2022-10-30T00:19:19;10.93;;;6.15;;
15256;SDS011;7731;50.720;6.912;2022-10-30T00:21:49;9.82;;;5.80;;
15256;SDS011;7731;50.720;6.912;2022-10-30T00:24:22;11.07;;;6.65;;
15256;SDS011;7731;50.720;6.912;2022-10-30T00:26:52;12.50;;;5.93;;
15256;SDS011;7731;50.720;6.912;2022-10-30T00:29:23;10.25;;;5.40;;
15256;SDS011;7731;50.720;6.912;2022-10-30T00:31:53;9.38;;;5.47;;
15256;SDS011;7731;50.720;6.912;2022-10-30T00:34:33;11.38;;;6.07;;
15256;SDS011;7731;50.720;6.912;2022-10-30T00:37:06;10.57;;;6.05;;
15256;SDS011;7731;50.720;6.912;2022-10-30T00:39:42;13.85;;;6.60;;
15256;SDS011;7731;50.720;6.912;2022-10-30T00:42:13;8.90;;;5.70;;
15256;SDS011;7731;50.720;6.912;2022-10-30T00:44:46;10.73;;;6.00;;
15256;SDS011;7731;50.720;6.912;2022-10-30T00:47:19;12.15;;;5.93;;
15256;SDS011;7731;50.720;6.912;2022-10-30T00:49:57;12.25;;;6.65;;
15256;SDS011;7731;50.720;6.912;2022-10-30T00:52:39;11.15;;;6.40;;
15256;SDS011;7731;50.720;6.912;2022-10-30T00:55:18;8.52;;;4.93;;
15256;SDS011;7731;50.720;6.912;2022-10-30T00:57:53;10.75;;;5.50;;
15256;SDS011;7731;50.720;6.912;2022-10-30T01:00:26;9.85;;;5.38;;
15256;SDS011;7731;50.720;6.912;2022-10-30T01:03:01;9.95;;;5.22;;
15256;SDS011;7731;50.720;6.912;2022-10-30T01:05:33;19.35;;;12.43;;
15256;SDS011;7731;50.720;6.912;2022-10-30T01:08:04;30.42;;;24.58;;
15256;SDS011;7731;50.720;6.912;2022-10-30T01:10:43;15.23;;;10.27;;
15256;SDS011;7731;50.720;6.912;2022-10-30T01:13:22;10.98;;;7.40;;
15256;SDS011;7731;50.720;6.912;2022-10-30T01:16:00;14.65;;;6.72;;
15256;SDS011;7731;50.720;6.912;2022-10-30T01:19:02;12.75;;;6.00;;
15256;SDS011;7731;50.720;6.912;2022-10-30T01:21:49;14.30;;;5.75;;
15256;SDS011;7731;50.720;6.912;2022-10-30T01:24:45;10.82;;;5.57;;
15256;SDS011;7731;50.720;6.912;2022-10-30T01:27:37;11.63;;;5.20;;
15256;SDS011;7731;50.720;6.912;2022-10-30T01:30:25;11.38;;;5.68;;
15256;SDS011;7731;50.720;6.912;2022-10-30T01:33:22;10.07;;;5.18;;
15256;SDS011;7731;50.720;6.912;2022-10-30T01:36:09;11.93;;;5.35;;
15256;SDS011;7731;50.720;6.912;2022-10-30T01:38:49;10.40;;;5.25;;
15256;SDS011;7731;50.720;6.912;2022-10-30T01:41:24;8.55;;;5.60;;
15256;SDS011;7731;50.720;6.912;2022-10-30T01:44:00;9.40;;;5.28;;
15256;SDS011;7731;50.720;6.912;2022-10-30T01:46:40;9.25;;;5.22;;
15256;SDS011;7731;50.720;6.912;2022-10-30T01:52:46;15.75;;;7.13;;
15256;SDS011;7731;50.720;6.912;2022-10-30T01:55:30;12.85;;;6.55;;
15256;SDS011;7731;50.720;6.912;2022-10-30T01:58:16;10.25;;;5.10;;
15256;SDS011;7731;50.720;6.912;2022-10-30T02:00:54;12.32;;;5.25;;
15256;SDS011;7731;50.720;6.912;2022-10-30T02:03:27;11.13;;;5.40;;
15256;SDS011;7731;50.720;6.912;2022-10-30T02:06:05;12.30;;;6.13;;
15256;SDS011;7731;50.720;6.912;2022-10-30T02:08:35;9.25;;;5.10;;
15256;SDS011;7731;50.720;6.912;2022-10-30T02:11:08;16.35;;;6.50;;
15256;SDS011;7731;50.720;6.912;2022-10-30T02:13:39;12.63;;;6.70;;
15256;SDS011;7731;50.720;6.912;2022-10-30T02:16:14;13.80;;;7.38;;
15256;SDS011;7731;50.720;6.912;2022-10-30T02:18:44;8.38;;;5.20;;
15256;SDS011;7731;50.720;6.912;2022-10-30T02:21:17;8.95;;;5.38;;
15256;SDS011;7731;50.720;6.912;2022-10-30T02:23:47;10.85;;;5.40;;
15256;SDS011;7731;50.720;6.912;2022-10-30T02:26:17;10.52;;;5.90;;
15256;SDS011;7731;50.720;6.912;2022-10-30T02:28:47;12.55;;;6.22;;
15256;SDS011;7731;50.720;6.912;2022-10-30T02:31:17;9.65;;;6.68;;
15256;SDS011;7731;50.720;6.912;2022-10-30T02:33:53;12.52;;;7.22;;
15256;SDS011;7731;50.720;6.912;2022-10-30T02:36:29;13.13;;;6.47;;
15256;SDS011;7731;50.720;6.912;2022-10-30T02:39:10;10.70;;;4.97;;
15256;SDS011;7731;50.720;6.912;2022-10-30T02:41:43;11.77;;;5.65;;
15256;SDS011;7731;50.720;6.912;2022-10-30T02:44:16;10.73;;;6.22;;
15256;SDS011;7731;50.720;6.912;2022-10-30T02:46:49;10.27;;;6.50;;
15256;SDS011;7731;50.720;6.912;2022-10-30T02:49:22;10.45;;;5.72;;
15256;SDS011;7731;50.720;6.912;2022-10-30T02:51:57;8.15;;;5.80;;
15256;SDS011;7731;50.720;6.912;2022-10-30T02:54:27;10.50;;;6.05;;
15256;SDS011;7731;50.720;6.912;2022-10-30T02:56:57;9.40;;;6.05;;
15256;SDS011;7731;50.720;6.912;2022-10-30T02:59:30;13.23;;;6.38;;
15256;SDS011;7731;50.720;6.912;2022-10-30T03:02:00;12.65;;;6.38;;
15256;SDS011;7731;50.720;6.912;2022-10-30T03:04:30;10.40;;;6.03;;
15256;SDS011;7731;50.720;6.912;2022-10-30T03:07:05;9.15;;;6.32;;
15256;SDS011;7731;50.720;6.912;2022-10-30T03:09:36;12.43;;;6.38;;
15256;SDS011;7731;50.720;6.912;2022-10-30T03:12:06;15.35;;;6.80;;
15256;SDS011;7731;50.720;6.912;2022-10-30T03:14:36;9.88;;;6.97;;
15256;SDS011;7731;50.720;6.912;2022-10-30T03:17:09;11.65;;;7.05;;
15256;SDS011;7731;50.720;6.912;2022-10-30T03:19:42;14.25;;;6.75;;
15256;SDS011;7731;50.720;6.912;2022-10-30T03:22:14;8.15;;;6.32;;
15256;SDS011;7731;50.720;6.912;2022-10-30T03:24:44;10.43;;;6.53;;
15256;SDS011;7731;50.720;6.912;2022-10-30T03:27:15;12.88;;;7.78;;
15256;SDS011;7731;50.720;6.912;2022-10-30T03:29:45;15.55;;;8.43;;
15256;SDS011;7731;50.720;6.912;2022-10-30T03:32:15;10.13;;;7.60;;
15256;SDS011;7731;50.720;6.912;2022-10-30T03:34:45;19.63;;;9.73;;
15256;SDS011;7731;50.720;6.912;2022-10-30T03:37:23;16.05;;;8.93;;
15256;SDS011;7731;50.720;6.912;2022-10-30T03:39:56;10.07;;;7.00;;
15256;SDS011;7731;50.720;6.912;2022-10-30T03:42:28;18.15;;;6.45;;
15256;SDS011;7731;50.720;6.912;2022-10-30T03:44:59;12.95;;;7.35;;
15256;SDS011;7731;50.720;6.912;2022-10-30T03:47:29;16.52;;;7.60;;
15256;SDS011;7731;50.720;6.912;2022-10-30T03:50:02;16.98;;;8.60;;
15256;SDS011;7731;50.720;6.912;2022-10-30T03:52:35;16.90;;;7.78;;
15256;SDS011;7731;50.720;6.912;2022-10-30T03:55:08;12.05;;;9.20;;
15256;SDS011;7731;50.720;6.912;2022-10-30T03:57:38;12.82;;;8.50;;
15256;SDS011;7731;50.720;6.912;2022-10-30T04:00:09;14.95;;;7.22;;
15256;SDS011;7731;50.720;6.912;2022-10-30T04:02:43;11.00;;;7.68;;
15256;SDS011;7731;50.720;6.912;2022-10-30T04:05:15;11.18;;;7.38;;
15256;SDS011;7731;50.720;6.912;2022-10-30T04:07:56;11.38;;;6.05;;
15256;SDS011;7731;50.720;6.912;2022-10-30T04:10:34;12.43;;;5.65;;
15256;SDS011;7731;50.720;6.912;2022-10-30T04:13:07;9.18;;;5.80;;
15256;SDS011;7731;50.720;6.912;2022-10-30T04:15:55;12.48;;;6.13;;
15256;SDS011;7731;50.720;6.912;2022-10-30T04:18:25;11.27;;;5.82;;
15256;SDS011;7731;50.720;6.912;2022-10-30T04:20:58;18.15;;;6.70;;
15256;SDS011;7731;50.720;6.912;2022-10-30T04:23:34;11.27;;;6.30;;
15256;SDS011;7731;50.720;6.912;2022-10-30T04:26:04;12.68;;;6.25;;
15256;SDS011;7731;50.720;6.912;2022-10-30T04:28:34;13.07;;;6.10;;
15256;SDS011;7731;50.720;6.912;2022-10-30T04:31:04;13.30;;;6.80;;
15256;SDS011;7731;50.720;6.912;2022-10-30T04:33:34;9.27;;;5.90;;
15256;SDS011;7731;50.720;6.912;2022-10-30T04:36:12;12.45;;;5.95;;
15256;SDS011;7731;50.720;6.912;2022-10-30T04:38:48;11.10;;;6.47;;
15256;SDS011;7731;50.720;6.912;2022-10-30T04:41:18;10.32;;;6.20;;
15256;SDS011;7731;50.720;6.912;2022-10-30T04:43:48;13.18;;;6.43;;
15256;SDS011;7731;50.720;6.912;2022-10-30T04:46:18;9.32;;;5.88;;
15256;SDS011;7731;50.720;6.912;2022-10-30T04:48:54;11.52;;;6.22;;
15256;SDS011;7731;50.720;6.912;2022-10-30T04:51:24;8.52;;;5.65;;
15256;SDS011;7731;50.720;6.912;2022-10-30T04:54:04;9.75;;;5.63;;
15256;SDS011;7731;50.720;6.912;2022-10-30T04:56:34;10.75;;;6.43;;
15256;SDS011;7731;50.720;6.912;2022-10-30T04:59:08;9.38;;;5.80;;
15256;SDS011;7731;50.720;6.912;2022-10-30T05:01:38;11.50;;;6.07;;
15256;SDS011;7731;50.720;6.912;2022-10-30T05:04:08;9.10;;;5.95;;
15256;SDS011;7731;50.720;6.912;2022-10-30T05:06:38;7.70;;;5.40;;
15256;SDS011;7731;50.720;6.912;2022-10-30T05:09:11;8.55;;;5.93;;
15256;SDS011;7731;50.720;6.912;2022-10-30T05:11:41;11.18;;;5.80;;
15256;SDS011;7731;50.720;6.912;2022-10-30T05:14:11;14.73;;;6.68;;
15256;SDS011;7731;50.720;6.912;2022-10-30T05:16:44;11.32;;;6.25;;
15256;SDS011;7731;50.720;6.912;2022-10-30T05:19:14;13.25;;;6.25;;
15256;SDS011;7731;50.720;6.912;2022-10-30T05:21:44;9.55;;;6.03;;
15256;SDS011;7731;50.720;6.912;2022-10-30T05:24:17;12.88;;;6.43;;
15256;SDS011;7731;50.720;6.912;2022-10-30T05:26:47;12.60;;;6.57;;
15256;SDS011;7731;50.720;6.912;2022-10-30T05:29:17;11.90;;;7.38;;
15256;SDS011;7731;50.720;6.912;2022-10-30T05:31:47;11.77;;;6.55;;
15256;SDS011;7731;50.720;6.912;2022-10-30T05:34:20;11.55;;;7.30;;
15256;SDS011;7731;50.720;6.912;2022-10-30T05:36:53;9.40;;;6.55;;
15256;SDS011;7731;50.720;6.912;2022-10-30T05:39:25;12.57;;;6.40;;
15256;SDS011;7731;50.720;6.912;2022-10-30T05:41:58;11.45;;;6.72;;
15256;SDS011;7731;50.720;6.912;2022-10-30T05:44:38;10.55;;;5.82;;
15256;SDS011;7731;50.720;6.912;2022-10-30T05:47:27;13.02;;;6.03;;
15256;SDS011;7731;50.720;6.912;2022-10-30T05:50:01;9.63;;;6.53;;
15256;SDS011;7731;50.720;6.912;2022-10-30T05:52:31;8.27;;;5.82;;
15256;SDS011;7731;50.720;6.912;2022-10-30T05:55:04;9.60;;;6.75;;
15256;SDS011;7731;50.720;6.912;2022-10-30T05:57:40;9.93;;;6.40;;
15256;SDS011;7731;50.720;6.912;2022-10-30T06:00:11;12.95;;;6.65;;
15256;SDS011;7731;50.720;6.912;2022-10-30T06:02:48;12.32;;;6.72;;
15256;SDS011;7731;50.720;6.912;2022-10-30T06:05:18;11.00;;;6.88;;
15256;SDS011;7731;50.720;6.912;2022-10-30T06:07:48;9.75;;;6.57;;
15256;SDS011;7731;50.720;6.912;2022-10-30T06:10:21;16.08;;;7.38;;
15256;SDS011;7731;50.720;6.912;2022-10-30T06:12:51;10.27;;;6.05;;
15256;SDS011;7731;50.720;6.912;2022-10-30T06:15:32;11.13;;;6.47;;
15256;SDS011;7731;50.720;6.912;2022-10-30T06:18:03;12.27;;;7.35;;
15256;SDS011;7731;50.720;6.912;2022-10-30T06:20:33;15.45;;;7.47;;
15256;SDS011;7731;50.720;6.912;2022-10-30T06:23:04;13.38;;;6.38;;
15256;SDS011;7731;50.720;6.912;2022-10-30T06:25:40;10.23;;;6.72;;
15256;SDS011;7731;50.720;6.912;2022-10-30T06:28:10;9.65;;;7.43;;
15256;SDS011;7731;50.720;6.912;2022-10-30T06:30:43;8.57;;;6.88;;
15256;SDS011;7731;50.720;6.912;2022-10-30T06:33:13;16.00;;;7.53;;
15256;SDS011;7731;50.720;6.912;2022-10-30T06:35:43;8.77;;;7.25;;
15256;SDS011;7731;50.720;6.912;2022-10-30T06:38:16;12.15;;;8.07;;
15256;SDS011;7731;50.720;6.912;2022-10-30T06:40:55;13.15;;;7.68;;
15256;SDS011;7731;50.720;6.912;2022-10-30T06:43:25;14.68;;;6.90;;
15256;SDS011;7731;50.720;6.912;2022-10-30T06:45:56;8.48;;;7.07;;
15256;SDS011;7731;50.720;6.912;2022-10-30T06:48:29;15.02;;;8.10;;
15256;SDS011;7731;50.720;6.912;2022-10-30T06:51:02;11.48;;;7.55;;
15256;SDS011;7731;50.720;6.912;2022-10-30T06:53:47;12.70;;;7.25;;
15256;SDS011;7731;50.720;6.912;2022-10-30T06:56:25;14.00;;;7.78;;
15256;SDS011;7731;50.720;6.912;2022-10-30T06:58:58;9.30;;;7.13;;
15256;SDS011;7731;50.720;6.912;2022-10-30T07:01:28;9.38;;;6.70;;
15256;SDS011;7731;50.720;6.912;2022-10-30T07:03:59;15.55;;;6.97;;
15256;SDS011;7731;50.720;6.912;2022-10-30T07:06:32;13.30;;;6.47;;
15256;SDS011;7731;50.720;6.912;2022-10-30T07:09:02;11.55;;;6.97;;
15256;SDS011;7731;50.720;6.912;2022-10-30T07:11:37;11.13;;;6.65;;
15256;SDS011;7731;50.720;6.912;2022-10-30T07:14:11;10.75;;;6.70;;
15256;SDS011;7731;50.720;6.912;2022-10-30T07:16:41;14.20;;;7.10;;
15256;SDS011;7731;50.720;6.912;2022-10-30T07:19:11;11.85;;;7.28;;
15256;SDS011;7731;50.720;6.912;2022-10-30T07:21:41;12.52;;;7.05;;
15256;SDS011;7731;50.720;6.912;2022-10-30T07:24:11;15.00;;;6.40;;
15256;SDS011;7731;50.720;6.912;2022-10-30T07:26:44;10.90;;;5.90;;
15256;SDS011;7731;50.720;6.912;2022-10-30T07:29:14;10.80;;;6.47;;
15256;SDS011;7731;50.720;6.912;2022-10-30T07:31:45;12.10;;;6.15;;
15256;SDS011;7731;50.720;6.912;2022-10-30T07:34:28;13.57;;;6.57;;
15256;SDS011;7731;50.720;6.912;2022-10-30T07:36:59;11.93;;;6.22;;
15256;SDS011;7731;50.720;6.912;2022-10-30T07:39:29;14.20;;;6.28;;
15256;SDS011;7731;50.720;6.912;2022-10-30T07:42:02;10.40;;;6.10;;
15256;SDS011;7731;50.720;6.912;2022-10-30T07:44:33;8.05;;;5.50;;
15256;SDS011;7731;50.720;6.912;2022-10-30T07:47:11;13.98;;;5.90;;
15256;SDS011;7731;50.720;6.912;2022-10-30T07:49:41;9.38;;;6.35;;
15256;SDS011;7731;50.720;6.912;2022-10-30T07:52:12;8.45;;;5.55;;
15256;SDS011;7731;50.720;6.912;2022-10-30T07:54:51;11.23;;;5.18;;
15256;SDS011;7731;50.720;6.912;2022-10-30T07:57:26;8.48;;;5.30;;
15256;SDS011;7731;50.720;6.912;2022-10-30T07:59:59;11.35;;;5.82;;
15256;SDS011;7731;50.720;6.912;2022-10-30T08:02:30;9.35;;;5.95;;
15256;SDS011;7731;50.720;6.912;2022-10-30T08:05:01;11.10;;;6.07;;
15256;SDS011;7731;50.720;6.912;2022-10-30T08:07:35;9.80;;;5.68;;
15256;SDS011;7731;50.720;6.912;2022-10-30T08:10:09;8.52;;;6.00;;
15256;SDS011;7731;50.720;6.912;2022-10-30T08:12:42;8.45;;;5.43;;
15256;SDS011;7731;50.720;6.912;2022-10-30T08:15:13;12.27;;;5.95;;
15256;SDS011;7731;50.720;6.912;2022-10-30T08:17:44;11.13;;;6.25;;
15256;SDS011;7731;50.720;6.912;2022-10-30T08:20:17;10.65;;;6.07;;
15256;SDS011;7731;50.720;6.912;2022-10-30T08:22:51;11.27;;;6.00;;
15256;SDS011;7731;50.720;6.912;2022-10-30T08:25:25;7.82;;;5.60;;
15256;SDS011;7731;50.720;6.912;2022-10-30T08:28:01;10.38;;;6.20;;
15256;SDS011;7731;50.720;6.912;2022-10-30T08:30:34;9.90;;;5.40;;
15256;SDS011;7731;50.720;6.912;2022-10-30T08:33:06;10.70;;;4.97;;
15256;SDS011;7731;50.720;6.912;2022-10-30T08:35:48;7.57;;;4.75;;
15256;SDS011;7731;50.720;6.912;2022-10-30T08:38:21;8.90;;;5.43;;
15256;SDS011;7731;50.720;6.912;2022-10-30T08:40:52;10.70;;;5.20;;
15256;SDS011;7731;50.720;6.912;2022-10-30T08:43:35;11.02;;;5.63;;
15256;SDS011;7731;50.720;6.912;2022-10-30T08:46:05;8.40;;;5.50;;
15256;SDS011;7731;50.720;6.912;2022-10-30T08:48:44;7.32;;;4.63;;
15256;SDS011;7731;50.720;6.912;2022-10-30T08:51:14;10.10;;;5.88;;
15256;SDS011;7731;50.720;6.912;2022-10-30T08:53:46;9.02;;;5.25;;
15256;SDS011;7731;50.720;6.912;2022-10-30T08:56:17;11.07;;;5.82;;
15256;SDS011;7731;50.720;6.912;2022-10-30T08:58:50;10.93;;;5.47;;
15256;SDS011;7731;50.720;6.912;2022-10-30T09:01:20;10.00;;;6.10;;
15256;SDS011;7731;50.720;6.912;2022-10-30T09:03:53;7.35;;;5.10;;
15256;SDS011;7731;50.720;6.912;2022-10-30T09:06:25;9.05;;;5.32;;
15256;SDS011;7731;50.720;6.912;2022-10-30T09:08:55;8.10;;;5.20;;
15256;SDS011;7731;50.720;6.912;2022-10-30T09:11:25;12.20;;;5.85;;
15256;SDS011;7731;50.720;6.912;2022-10-30T09:13:58;9.43;;;4.97;;
15256;SDS011;7731;50.720;6.912;2022-10-30T09:16:31;8.75;;;5.50;;
15256;SDS011;7731;50.720;6.912;2022-10-30T09:19:04;9.30;;;5.13;;
15256;SDS011;7731;50.720;6.912;2022-10-30T09:21:34;10.10;;;5.00;;
15256;SDS011;7731;50.720;6.912;2022-10-30T09:24:05;10.20;;;4.72;;
15256;SDS011;7731;50.720;6.912;2022-10-30T09:26:36;9.52;;;4.82;;
15256;SDS011;7731;50.720;6.912;2022-10-30T09:29:08;10.55;;;4.68;;
15256;SDS011;7731;50.720;6.912;2022-10-30T09:31:39;7.47;;;4.63;;
15256;SDS011;7731;50.720;6.912;2022-10-30T09:34:09;7.47;;;4.78;;
15256;SDS011;7731;50.720;6.912;2022-10-30T09:36:39;13.27;;;5.05;;
15256;SDS011;7731;50.720;6.912;2022-10-30T09:39:11;11.30;;;5.60;;
15256;SDS011;7731;50.720;6.912;2022-10-30T09:41:53;12.43;;;5.03;;
15256;SDS011;7731;50.720;6.912;2022-10-30T09:44:53;9.20;;;5.10;;
15256;SDS011;7731;50.720;6.912;2022-10-30T09:47:59;7.53;;;4.20;;
15256;SDS011;7731;50.720;6.912;2022-10-30T09:50:46;11.43;;;5.10;;
15256;SDS011;7731;50.720;6.912;2022-10-30T09:53:32;10.23;;;5.03;;
15256;SDS011;7731;50.720;6.912;2022-10-30T09:56:18;9.45;;;4.75;;
15256;SDS011;7731;50.720;6.912;2022-10-30T09:58:59;9.65;;;5.15;;
15256;SDS011;7731;50.720;6.912;2022-10-30T10:01:52;11.00;;;4.90;;
15256;SDS011;7731;50.720;6.912;2022-10-30T10:04:33;11.02;;;4.70;;
15256;SDS011;7731;50.720;6.912;2022-10-30T10:07:15;9.60;;;4.95;;
15256;SDS011;7731;50.720;6.912;2022-10-30T10:09:52;10.45;;;5.40;;
15256;SDS011;7731;50.720;6.912;2022-10-30T10:12:32;7.80;;;4.50;;
15256;SDS011;7731;50.720;6.912;2022-10-30T10:15:13;10.43;;;4.68;;
15256;SDS011;7731;50.720;6.912;2022-10-30T10:17:54;11.48;;;4.72;;
15256;SDS011;7731;50.720;6.912;2022-10-30T10:20:29;9.02;;;4.57;;
15256;SDS011;7731;50.720;6.912;2022-10-30T10:23:15;10.95;;;4.95;;
15256;SDS011;7731;50.720;6.912;2022-10-30T10:25:51;9.85;;;4.45;;
15256;SDS011;7731;50.720;6.912;2022-10-30T10:28:36;8.85;;;4.80;;
15256;SDS011;7731;50.720;6.912;2022-10-30T10:31:34;9.73;;;4.78;;
15256;SDS011;7731;50.720;6.912;2022-10-30T10:37:22;6.95;;;4.68;;
15256;SDS011;7731;50.720;6.912;2022-10-30T10:40:16;11.75;;;4.78;;
15256;SDS011;7731;50.720;6.912;2022-10-30T10:43:04;7.15;;;4.30;;
15256;SDS011;7731;50.720;6.912;2022-10-30T10:45:50;9.18;;;4.70;;
15256;SDS011;7731;50.720;6.912;2022-10-30T10:48:43;9.48;;;4.30;;
15256;SDS011;7731;50.720;6.912;2022-10-30T10:51:32;8.73;;;4.55;;
15256;SDS011;7731;50.720;6.912;2022-10-30T10:54:09;10.13;;;5.28;;
15256;SDS011;7731;50.720;6.912;2022-10-30T10:56:45;9.00;;;4.65;;
15256;SDS011;7731;50.720;6.912;2022-10-30T10:59:22;9.38;;;4.30;;
15256;SDS011;7731;50.720;6.912;2022-10-30T11:02:10;8.60;;;4.50;;
15256;SDS011;7731;50.720;6.912;2022-10-30T11:05:11;8.00;;;4.40;;
15256;SDS011;7731;50.720;6.912;2022-10-30T11:08:00;9.43;;;4.32;;
15256;SDS011;7731;50.720;6.912;2022-10-30T11:10:40;8.23;;;4.90;;
15256;SDS011;7731;50.720;6.912;2022-10-30T11:13:11;10.63;;;4.72;;
15256;SDS011;7731;50.720;6.912;2022-10-30T11:15:46;7.82;;;4.55;;
15256;SDS011;7731;50.720;6.912;2022-10-30T11:18:32;10.35;;;5.25;;
15256;SDS011;7731;50.720;6.912;2022-10-30T11:21:04;12.68;;;4.97;;
15256;SDS011;7731;50.720;6.912;2022-10-30T11:23:43;6.32;;;4.25;;
15256;SDS011;7731;50.720;6.912;2022-10-30T11:26:31;9.82;;;4.15;;
15256;SDS011;7731;50.720;6.912;2022-10-30T11:29:04;9.18;;;4.22;;
15256;SDS011;7731;50.720;6.912;2022-10-30T11:31:45;11.18;;;4.45;;
15256;SDS011;7731;50.720;6.912;2022-10-30T11:34:30;13.68;;;4.10;;
15256;SDS011;7731;50.720;6.912;2022-10-30T11:37:06;8.77;;;4.57;;
15256;SDS011;7731;50.720;6.912;2022-10-30T11:40:06;9.10;;;4.32;;
15256;SDS011;7731;50.720;6.912;2022-10-30T11:42:46;11.68;;;4.65;;
15256;SDS011;7731;50.720;6.912;2022-10-30T11:45:28;9.52;;;4.50;;
15256;SDS011;7731;50.720;6.912;2022-10-30T11:48:03;8.77;;;4.32;;
15256;SDS011;7731;50.720;6.912;2022-10-30T11:50:49;10.80;;;4.97;;
15256;SDS011;7731;50.720;6.912;2022-10-30T11:53:26;8.65;;;4.22;;
15256;SDS011;7731;50.720;6.912;2022-10-30T11:56:13;8.50;;;4.30;;
15256;SDS011;7731;50.720;6.912;2022-10-30T11:58:51;7.43;;;4.45;;
15256;SDS011;7731;50.720;6.912;2022-10-30T12:01:39;7.25;;;3.65;;
15256;SDS011;7731;50.720;6.912;2022-10-30T12:04:29;8.93;;;3.72;;
15256;SDS011;7731;50.720;6.912;2022-10-30T12:07:06;5.97;;;3.20;;
15256;SDS011;7731;50.720;6.912;2022-10-30T12:09:46;8.05;;;3.38;;
15256;SDS011;7731;50.720;6.912;2022-10-30T12:12:26;6.32;;;2.72;;
15256;SDS011;7731;50.720;6.912;2022-10-30T12:15:06;6.18;;;3.08;;
15256;SDS011;7731;50.720;6.912;2022-10-30T12:17:50;8.73;;;3.25;;
15256;SDS011;7731;50.720;6.912;2022-10-30T12:20:22;4.93;;;3.10;;
15256;SDS011;7731;50.720;6.912;2022-10-30T12:22:52;6.13;;;2.95;;
15256;SDS011;7731;50.720;6.912;2022-10-30T12:25:25;6.20;;;3.08;;
15256;SDS011;7731;50.720;6.912;2022-10-30T12:28:02;4.60;;;2.90;;
15256;SDS011;7731;50.720;6.912;2022-10-30T12:30:44;6.32;;;2.88;;
15256;SDS011;7731;50.720;6.912;2022-10-30T12:33:24;5.72;;;2.95;;
15256;SDS011;7731;50.720;6.912;2022-10-30T12:36:00;5.18;;;3.10;;
15256;SDS011;7731;50.720;6.912;2022-10-30T12:38:38;3.78;;;2.67;;
15256;SDS011;7731;50.720;6.912;2022-10-30T12:41:17;5.25;;;3.40;;
15256;SDS011;7731;50.720;6.912;2022-10-30T12:44:02;5.57;;;2.95;;
15256;SDS011;7731;50.720;6.912;2022-10-30T12:46:43;6.88;;;2.92;;
15256;SDS011;7731;50.720;6.912;2022-10-30T12:49:20;7.72;;;3.75;;
15256;SDS011;7731;50.720;6.912;2022-10-30T12:52:03;4.00;;;2.70;;
15256;SDS011;7731;50.720;6.912;2022-10-30T12:54:49;9.07;;;3.25;;
15256;SDS011;7731;50.720;6.912;2022-10-30T12:57:31;6.78;;;3.10;;
15256;SDS011;7731;50.720;6.912;2022-10-30T13:02:49;4.03;;;2.85;;
15256;SDS011;7731;50.720;6.912;2022-10-30T13:05:31;6.53;;;3.47;;
15256;SDS011;7731;50.720;6.912;2022-10-30T13:08:13;4.30;;;2.95;;
15256;SDS011;7731;50.720;6.912;2022-10-30T13:10:58;7.10;;;3.13;;
15256;SDS011;7731;50.720;6.912;2022-10-30T13:13:38;3.95;;;2.63;;
15256;SDS011;7731;50.720;6.912;2022-10-30T13:16:28;7.60;;;2.92;;
15256;SDS011;7731;50.720;6.912;2022-10-30T13:19:01;6.13;;;2.83;;
15256;SDS011;7731;50.720;6.912;2022-10-30T13:21:34;4.97;;;2.72;;
15256;SDS011;7731;50.720;6.912;2022-10-30T13:24:15;5.95;;;3.05;;
15256;SDS011;7731;50.720;6.912;2022-10-30T13:26:51;4.75;;;2.92;;
15256;SDS011;7731;50.720;6.912;2022-10-30T13:29:27;8.25;;;3.03;;
15256;SDS011;7731;50.720;6.912;2022-10-30T13:32:22;6.75;;;3.03;;
15256;SDS011;7731;50.720;6.912;2022-10-30T13:35:07;6.88;;;3.28;;
15256;SDS011;7731;50.720;6.912;2022-10-30T13:37:59;7.30;;;2.97;;
15256;SDS011;7731;50.720;6.912;2022-10-30T13:40:48;7.10;;;2.83;;
15256;SDS011;7731;50.720;6.912;2022-10-30T13:43:28;7.35;;;2.80;;
15256;SDS011;7731;50.720;6.912;2022-10-30T13:46:26;4.63;;;2.97;;
15256;SDS011;7731;50.720;6.912;2022-10-30T13:49:28;5.45;;;3.53;;
15256;SDS011;7731;50.720;6.912;2022-10-30T13:52:17;5.93;;;3.58;;
15256;SDS011;7731;50.720;6.912;2022-10-30T13:55:12;6.45;;;2.88;;
15256;SDS011;7731;50.720;6.912;2022-10-30T13:57:56;6.32;;;3.20;;
15256;SDS011;7731;50.720;6.912;2022-10-30T14:00:45;7.30;;;2.97;;
15256;SDS011;7731;50.720;6.912;2022-10-30T14:03:41;5.35;;;2.90;;
15256;SDS011;7731;50.720;6.912;2022-10-30T14:06:27;4.40;;;3.03;;
15256;SDS011;7731;50.720;6.912;2022-10-30T14:09:11;5.50;;;2.90;;
15256;SDS011;7731;50.720;6.912;2022-10-30T14:11:55;6.20;;;3.17;;
15256;SDS011;7731;50.720;6.912;2022-10-30T14:14:30;4.65;;;2.90;;
15256;SDS011;7731;50.720;6.912;2022-10-30T14:17:12;5.60;;;2.85;;
15256;SDS011;7731;50.720;6.912;2022-10-30T14:23:11;6.97;;;3.45;;
15256;SDS011;7731;50.720;6.912;2022-10-30T14:25:43;5.65;;;2.85;;
15256;SDS011;7731;50.720;6.912;2022-10-30T14:28:47;5.40;;;3.03;;
15256;SDS011;7731;50.720;6.912;2022-10-30T14:31:33;6.05;;;3.25;;
15256;SDS011;7731;50.720;6.912;2022-10-30T14:37:09;5.82;;;2.90;;
15256;SDS011;7731;50.720;6.912;2022-10-30T14:39:47;5.30;;;2.65;;
15256;SDS011;7731;50.720;6.912;2022-10-30T14:42:19;5.95;;;3.33;;
15256;SDS011;7731;50.720;6.912;2022-10-30T14:45:00;7.05;;;2.83;;
15256;SDS011;7731;50.720;6.912;2022-10-30T14:47:50;6.65;;;2.60;;
15256;SDS011;7731;50.720;6.912;2022-10-30T14:50:31;7.13;;;2.78;;
15256;SDS011;7731;50.720;6.912;2022-10-30T14:53:28;5.45;;;3.40;;
15256;SDS011;7731;50.720;6.912;2022-10-30T14:56:26;7.57;;;3.22;;
15256;SDS011;7731;50.720;6.912;2022-10-30T14:59:16;8.50;;;2.97;;
15256;SDS011;7731;50.720;6.912;2022-10-30T15:01:58;4.55;;;2.92;;
15256;SDS011;7731;50.720;6.912;2022-10-30T15:04:52;6.20;;;2.97;;
15256;SDS011;7731;50.720;6.912;2022-10-30T15:07:46;6.50;;;3.30;;
15256;SDS011;7731;50.720;6.912;2022-10-30T15:10:27;6.28;;;3.05;;
15256;SDS011;7731;50.720;6.912;2022-10-30T15:13:08;5.38;;;3.25;;
15256;SDS011;7731;50.720;6.912;2022-10-30T15:15:55;10.43;;;3.45;;
15256;SDS011;7731;50.720;6.912;2022-10-30T15:18:28;8.38;;;3.72;;
15256;SDS011;7731;50.720;6.912;2022-10-30T15:21:02;7.55;;;3.83;;
15256;SDS011;7731;50.720;6.912;2022-10-30T15:23:51;8.88;;;3.40;;
15256;SDS011;7731;50.720;6.912;2022-10-30T15:26:33;7.30;;;3.30;;
15256;SDS011;7731;50.720;6.912;2022-10-30T15:29:10;4.57;;;3.53;;
15256;SDS011;7731;50.720;6.912;2022-10-30T15:31:58;6.25;;;3.42;;
15256;SDS011;7731;50.720;6.912;2022-10-30T15:34:30;4.63;;;3.63;;
15256;SDS011;7731;50.720;6.912;2022-10-30T15:37:09;6.72;;;3.80;;
15256;SDS011;7731;50.720;6.912;2022-10-30T15:39:40;5.65;;;3.78;;
15256;SDS011;7731;50.720;6.912;2022-10-30T15:42:10;6.78;;;3.42;;
15256;SDS011;7731;50.720;6.912;2022-10-30T15:44:44;11.35;;;3.92;;
15256;SDS011;7731;50.720;6.912;2022-10-30T15:47:17;5.03;;;3.35;;
15256;SDS011;7731;50.720;6.912;2022-10-30T15:49:49;8.27;;;3.28;;
15256;SDS011;7731;50.720;6.912;2022-10-30T15:52:23;6.57;;;3.35;;
15256;SDS011;7731;50.720;6.912;2022-10-30T15:54:56;6.60;;;3.22;;
15256;SDS011;7731;50.720;6.912;2022-10-30T15:57:31;8.55;;;3.38;;
15256;SDS011;7731;50.720;6.912;2022-10-30T16:00:37;6.07;;;3.88;;
15256;SDS011;7731;50.720;6.912;2022-10-30T16:03:14;8.75;;;3.80;;
15256;SDS011;7731;50.720;6.912;2022-10-30T16:05:46;8.18;;;3.40;;
15256;SDS011;7731;50.720;6.912;2022-10-30T16:08:18;8.98;;;3.83;;
15256;SDS011;7731;50.720;6.912;2022-10-30T16:10:53;6.68;;;3.85;;